Time;durP1;ratioP1;P1;durP2;ratioP2;P2;SDS_P1;SDS_P2;PMS_P1;PMS_P2;Temp;Humidity;BMP_temperature;BMP_pressure;BME280_temperature;BME280_humidity;BME280_pressure;Samples;Min_cycle;Max_cycle;Signal;HPM_P1;HPM_P2
2021/10/03 00:03:32;;;;;;;4.00;3.70;;;17.30;37.30;;;;;;10416021;28;20229;-81
2021/10/03 00:08:36;;;;;;;3.77;3.47;;;17.30;37.10;;;;;;10419898;28;20256;-81
2021/10/03 00:13:52;;;;;;;4.20;3.90;;;17.20;37.10;;;;;;10419967;28;20230;-75
2021/10/03 00:18:56;;;;;;;3.40;3.20;;;17.20;37.50;;;;;;10415495;28;20236;-75
2021/10/03 00:24:14;;;;;;;4.10;3.80;;;17.00;36.90;;;;;;10413858;28;20228;-75
2021/10/03 00:29:19;;;;;;;4.10;3.80;;;17.10;36.90;;;;;;10415763;28;20232;-75
2021/10/03 00:34:22;;;;;;;3.63;3.33;;;17.00;37.20;;;;;;10420143;28;20237;-78
2021/10/03 00:39:26;;;;;;;3.83;3.53;;;17.00;36.90;;;;;;10417099;28;20733;-80
2021/10/03 00:44:30;;;;;;;2.80;2.60;;;16.90;36.80;;;;;;10423414;28;20347;-81
2021/10/03 00:49:36;;;;;;;3.40;3.10;;;16.90;37.10;;;;;;10414955;28;20222;-75
2021/10/03 00:54:39;;;;;;;3.53;3.23;;;16.80;36.90;;;;;;10417052;28;20229;-75
2021/10/03 00:59:44;;;;;;;3.20;2.90;;;16.80;37.20;;;;;;10412527;28;20229;-72
2021/10/03 01:04:47;;;;;;;4.10;3.70;;;16.70;37.20;;;;;;10414363;28;20217;-72
2021/10/03 01:09:50;;;;;;;3.47;3.27;;;16.70;37.00;;;;;;10419063;28;20229;-72
2021/10/03 01:14:55;;;;;;;2.90;2.70;;;16.60;37.00;;;;;;10413226;28;20229;-75
2021/10/03 01:19:58;;;;;;;3.60;3.30;;;16.60;37.20;;;;;;10413491;28;20240;-75
2021/10/03 01:25:04;;;;;;;3.53;3.33;;;16.60;37.00;;;;;;10419701;28;20233;-75
2021/10/03 01:30:10;;;;;;;3.57;3.27;;;16.60;37.20;;;;;;10413480;28;20622;-78
2021/10/03 01:35:14;;;;;;;3.47;3.17;;;16.50;37.10;;;;;;10411644;28;20387;-75
2021/10/03 01:40:21;;;;;;;4.17;3.87;;;16.50;36.90;;;;;;10415022;28;20226;-75
2021/10/03 01:45:25;;;;;;;4.07;3.60;;;16.40;37.00;;;;;;10416280;28;20592;-72
2021/10/03 01:50:29;;;;;;;2.73;2.53;;;16.40;36.80;;;;;;10418028;28;20224;-75
2021/10/03 01:55:33;;;;;;;3.77;3.57;;;16.30;36.90;;;;;;10417700;28;20232;-78
2021/10/03 02:00:37;;;;;;;3.47;3.27;;;16.30;37.20;;;;;;10416518;28;20232;-78
2021/10/03 02:05:43;;;;;;;3.70;3.50;;;16.20;36.90;;;;;;10415927;28;20599;-72
2021/10/03 02:10:51;;;;;;;5.13;4.10;;;16.10;37.10;;;;;;10412794;28;20225;-78
2021/10/03 02:15:54;;;;;;;3.40;3.20;;;16.00;37.00;;;;;;10409981;28;20229;-72
2021/10/03 02:20:58;;;;;;;3.70;3.40;;;16.00;36.90;;;;;;10426360;28;20227;-72
2021/10/03 02:26:03;;;;;;;3.57;3.20;;;15.90;37.00;;;;;;10418585;28;20248;-72
2021/10/03 02:31:10;;;;;;;3.87;3.57;;;15.90;37.20;;;;;;10417862;28;20226;-72
2021/10/03 02:36:16;;;;;;;3.43;3.07;;;15.80;37.30;;;;;;10422133;28;20236;-72
2021/10/03 02:41:24;;;;;;;3.20;3.00;;;15.70;36.80;;;;;;10418620;28;20268;-72
2021/10/03 02:46:28;;;;;;;4.93;3.13;;;15.70;37.90;;;;;;10417635;28;20240;-72
2021/10/03 02:51:32;;;;;;;3.50;3.20;;;15.60;36.80;;;;;;10418276;28;20227;-82
2021/10/03 02:56:36;;;;;;;3.50;3.20;;;15.50;36.90;;;;;;10427504;28;20229;-82
2021/10/03 03:01:39;;;;;;;3.17;2.97;;;15.40;37.00;;;;;;10421935;28;20229;-78
2021/10/03 03:06:43;;;;;;;3.07;2.87;;;15.40;37.00;;;;;;10415487;28;20820;-78
2021/10/03 03:11:47;;;;;;;3.40;3.10;;;15.30;37.10;;;;;;10418413;28;20236;-78
2021/10/03 03:16:53;;;;;;;2.80;2.60;;;15.30;37.40;;;;;;10421529;28;20236;-78
2021/10/03 03:21:56;;;;;;;3.10;2.90;;;15.20;37.40;;;;;;10423387;28;20236;-78
2021/10/03 03:27:01;;;;;;;3.50;3.20;;;15.20;37.30;;;;;;10419619;28;20232;-78
2021/10/03 03:32:05;;;;;;;3.40;3.10;;;15.20;37.50;;;;;;10416723;28;20705;-77
2021/10/03 03:37:08;;;;;;;3.20;2.90;;;15.10;37.20;;;;;;10415565;28;20236;-78
2021/10/03 03:42:12;;;;;;;3.37;3.10;;;15.10;37.30;;;;;;10420111;28;20232;-75
2021/10/03 03:47:16;;;;;;;3.30;3.10;;;15.10;37.50;;;;;;10415767;28;20712;-75
2021/10/03 03:52:19;;;;;;;3.77;3.07;;;15.00;37.30;;;;;;10418800;28;20239;-75
2021/10/03 03:57:23;;;;;;;3.33;3.00;;;15.00;37.40;;;;;;10423506;28;20244;-75
2021/10/03 04:02:26;;;;;;;3.40;3.20;;;15.00;37.70;;;;;;10418709;28;20251;-78
2021/10/03 04:07:30;;;;;;;3.80;3.50;;;14.90;37.50;;;;;;10419534;28;20685;-72
2021/10/03 04:12:36;;;;;;;3.80;3.50;;;14.90;38.20;;;;;;10415762;28;20229;-72
2021/10/03 04:17:39;;;;;;;4.83;4.40;;;14.80;38.00;;;;;;10418705;28;20225;-72
2021/10/03 04:22:42;;;;;;;3.93;3.63;;;14.70;37.70;;;;;;10418825;28;20221;-72
2021/10/03 04:27:47;;;;;;;4.47;3.50;;;14.70;37.90;;;;;;10428433;28;20222;-82
2021/10/03 04:32:50;;;;;;;4.30;4.00;;;14.60;38.10;;;;;;10417896;28;20232;-72
2021/10/03 04:37:54;;;;;;;6.27;4.10;;;14.60;38.00;;;;;;10422943;28;20214;-72
2021/10/03 04:42:58;;;;;;;4.93;4.53;;;14.50;38.10;;;;;;10420643;28;20236;-76
2021/10/03 04:48:02;;;;;;;5.50;5.00;;;14.50;38.60;;;;;;10416248;28;20222;-76
2021/10/03 04:53:05;;;;;;;4.63;4.23;;;14.50;38.50;;;;;;10419114;28;20228;-72
2021/10/03 04:58:10;;;;;;;5.13;4.63;;;14.40;38.40;;;;;;10419626;28;20685;-75
2021/10/03 05:03:13;;;;;;;4.83;4.43;;;14.50;39.00;;;;;;10415819;28;20696;-76
2021/10/03 05:08:18;;;;;;;5.00;4.60;;;14.50;38.70;;;;;;10414896;28;20248;-76
2021/10/03 05:13:22;;;;;;;4.33;4.03;;;14.50;38.60;;;;;;10419101;28;20299;-76
2021/10/03 05:18:26;;;;;;;4.67;4.30;;;14.50;38.90;;;;;;10416420;28;20229;-76
2021/10/03 05:23:29;;;;;;;4.27;3.97;;;14.50;38.50;;;;;;10413239;28;20225;-76
2021/10/03 05:28:34;;;;;;;4.63;4.33;;;14.50;38.50;;;;;;10413676;28;20308;-76
2021/10/03 05:33:44;;;;;;;4.63;4.23;;;14.50;38.80;;;;;;10414901;28;20824;-76
2021/10/03 05:38:48;;;;;;;5.13;4.73;;;14.50;39.30;;;;;;10415643;28;20308;-76
2021/10/03 05:43:55;;;;;;;4.47;4.07;;;14.50;38.60;;;;;;10419132;28;20240;-76
2021/10/03 05:48:59;;;;;;;4.70;4.30;;;14.50;39.20;;;;;;10411467;28;20221;-76
2021/10/03 05:54:02;;;;;;;6.30;5.70;;;14.50;38.80;;;;;;10415707;28;20228;-75
2021/10/03 05:59:12;;;;;;;7.30;6.70;;;14.50;39.00;;;;;;10414865;28;20713;-79
2021/10/03 06:04:15;;;;;;;6.83;6.17;;;14.40;39.80;;;;;;10412532;28;20229;-80
2021/10/03 06:09:18;;;;;;;6.90;6.30;;;14.50;39.70;;;;;;10408075;28;20328;-81
2021/10/03 06:14:22;;;;;;;7.40;6.70;;;14.50;40.00;;;;;;10411890;28;20241;-72
2021/10/03 06:19:26;;;;;;;7.20;6.57;;;14.50;40.70;;;;;;10418832;28;20231;-77
2021/10/03 06:24:29;;;;;;;6.93;6.17;;;14.50;40.60;;;;;;10417547;28;20233;-77
2021/10/03 06:29:34;;;;;;;6.37;5.77;;;14.60;40.70;;;;;;10413861;28;20225;-77
2021/10/03 06:34:37;;;;;;;6.73;6.13;;;14.70;41.20;;;;;;10413572;28;20235;-77
2021/10/03 06:39:40;;;;;;;5.93;5.43;;;14.80;40.90;;;;;;10411853;28;20225;-74
2021/10/03 06:44:45;;;;;;;6.20;5.67;;;14.90;40.90;;;;;;10416927;28;20244;-80
2021/10/03 06:49:48;;;;;;;7.50;5.50;;;15.00;41.30;;;;;;10415570;28;20232;-80
2021/10/03 06:54:51;;;;;;;5.80;5.30;;;15.10;41.10;;;;;;10417568;28;20235;-80
2021/10/03 06:59:56;;;;;;;5.80;5.23;;;15.20;41.10;;;;;;10420173;28;20240;-80
2021/10/03 07:04:59;;;;;;;5.43;5.00;;;15.30;41.70;;;;;;10424265;28;20232;-78
2021/10/03 07:10:04;;;;;;;5.53;5.03;;;15.40;41.40;;;;;;10420579;28;20323;-76
2021/10/03 07:15:09;;;;;;;5.67;5.10;;;15.50;41.70;;;;;;10427790;28;20653;-78
2021/10/03 07:20:13;;;;;;;5.30;4.90;;;15.70;42.10;;;;;;10422789;28;20228;-73
2021/10/03 07:25:16;;;;;;;5.00;4.60;;;15.80;41.60;;;;;;10422365;28;20663;-82
2021/10/03 07:30:21;;;;;;;4.67;4.27;;;16.00;41.80;;;;;;10425198;28;20239;-78
2021/10/03 07:35:24;;;;;;;4.73;4.33;;;16.20;41.90;;;;;;10426940;28;20231;-76
2021/10/03 07:40:27;;;;;;;4.13;3.80;;;16.40;41.90;;;;;;10422593;28;20312;-73
2021/10/03 07:45:32;;;;;;;4.53;4.13;;;16.60;41.80;;;;;;10424046;28;20253;-77
2021/10/03 07:50:36;;;;;;;4.23;3.93;;;16.90;42.00;;;;;;10420662;28;20224;-81
2021/10/03 07:55:39;;;;;;;4.00;3.70;;;17.20;41.80;;;;;;10427838;28;20227;-72
2021/10/03 08:00:44;;;;;;;4.53;3.77;;;17.40;41.60;;;;;;10420572;28;20225;-78
2021/10/03 08:05:47;;;;;;;3.90;3.60;;;17.70;41.40;;;;;;10415749;28;20228;-81
2021/10/03 08:10:52;;;;;;;3.87;3.40;;;17.90;41.30;;;;;;10415687;28;20294;-76
2021/10/03 08:15:57;;;;;;;3.70;3.40;;;18.20;41.10;;;;;;10407947;28;20279;-81
2021/10/03 08:21:02;;;;;;;3.43;3.13;;;18.50;41.00;;;;;;10415045;28;20244;-80
2021/10/03 08:26:15;;;;;;;3.73;3.43;;;18.90;40.90;;;;;;10405342;28;20240;-75
2021/10/03 08:31:21;;;;;;;3.33;3.10;;;19.20;39.90;;;;;;10409475;28;20230;-75
2021/10/03 08:36:26;;;;;;;3.10;2.80;;;19.40;39.80;;;;;;10412464;28;20235;-75
2021/10/03 08:41:31;;;;;;;3.47;3.17;;;19.80;40.00;;;;;;10413752;28;20232;-73
2021/10/03 08:46:48;;;;;;;3.57;3.17;;;19.90;39.40;;;;;;10413944;28;20241;-75
2021/10/03 08:51:51;;;;;;;4.17;2.80;;;20.10;38.40;;;;;;10420289;28;20451;-75
2021/10/03 08:56:56;;;;;;;4.43;3.17;;;20.30;39.00;;;;;;10415451;28;20268;-75
2021/10/03 09:02:03;;;;;;;3.43;3.23;;;20.50;38.30;;;;;;10415783;28;20231;-75
2021/10/03 09:07:10;;;;;;;2.77;2.57;;;20.80;37.30;;;;;;10423032;28;20678;-81
2021/10/03 09:12:23;;;;;;;2.87;2.67;;;21.00;37.40;;;;;;10423976;28;20793;-76
2021/10/03 09:17:32;;;;;;;3.10;2.90;;;21.20;37.60;;;;;;10419148;28;20236;-79
2021/10/03 09:22:55;;;;;;;3.33;3.07;;;21.40;36.80;;;;;;10417926;28;20229;-75
2021/10/03 09:27:58;;;;;;;3.73;2.93;;;21.70;37.00;;;;;;10422402;28;20773;-75
2021/10/03 09:33:04;;;;;;;3.17;2.97;;;21.90;37.60;;;;;;10398021;28;20260;-82
2021/10/03 09:38:10;;;;;;;3.10;2.90;;;22.10;36.50;;;;;;10425555;28;20221;-82
2021/10/03 09:43:37;;;;;;;3.23;2.90;;;22.30;35.80;;;;;;10417565;28;20232;-81
2021/10/03 09:48:49;;;;;;;6.00;2.83;;;22.50;36.60;;;;;;10433860;28;20237;-75
2021/10/03 09:53:52;;;;;;;3.10;2.90;;;22.80;34.80;;;;;;10423389;28;20240;-73
2021/10/03 09:58:57;;;;;;;3.20;3.00;;;23.00;36.60;;;;;;10423610;28;20227;-83
2021/10/03 10:04:03;;;;;;;2.93;2.73;;;23.20;35.80;;;;;;10422965;28;20241;-83
2021/10/03 10:09:08;;;;;;;2.77;2.57;;;23.40;34.50;;;;;;10427375;28;20221;-83
2021/10/03 10:14:11;;;;;;;2.90;2.70;;;23.50;34.60;;;;;;10421563;28;20237;-72
2021/10/03 10:19:43;;;;;;;2.73;2.53;;;23.60;35.60;;;;;;10411438;28;20229;-72
2021/10/03 10:24:48;;;;;;;4.53;2.87;;;23.90;34.80;;;;;;10409997;28;20609;-76
2021/10/03 10:29:52;;;;;;;2.80;2.60;;;24.00;34.30;;;;;;10414271;28;20879;-82
2021/10/03 10:35:19;;;;;;;2.73;2.53;;;24.10;34.10;;;;;;10413652;28;20233;-83
2021/10/03 10:40:31;;;;;;;2.90;2.70;;;24.30;33.10;;;;;;10403682;28;20272;-72
2021/10/03 10:45:40;;;;;;;2.80;2.60;;;24.40;32.80;;;;;;10418511;28;21007;-72
2021/10/03 10:51:21;;;;;;;2.70;2.50;;;24.50;32.90;;;;;;10427731;28;20232;-75
2021/10/03 10:56:27;;;;;;;3.00;2.80;;;24.70;33.00;;;;;;10420752;28;20542;-75
2021/10/03 11:01:40;;;;;;;3.00;2.80;;;24.90;32.50;;;;;;10424178;28;20233;-78
2021/10/03 11:07:06;;;;;;;2.80;2.60;;;24.90;32.20;;;;;;10406968;28;20717;-75
2021/10/03 11:12:11;;;;;;;2.70;2.50;;;25.10;32.20;;;;;;10413412;28;20685;-75
2021/10/03 11:17:15;;;;;;;2.70;2.60;;;25.20;32.30;;;;;;10420293;28;20229;-72
2021/10/03 11:22:23;;;;;;;2.83;2.63;;;25.30;32.30;;;;;;10427974;28;20240;-84
2021/10/03 11:27:30;;;;;;;2.87;2.67;;;25.30;31.50;;;;;;10425456;28;20245;-84
2021/10/03 11:32:37;;;;;;;2.83;2.63;;;25.40;31.70;;;;;;10423833;28;20279;-75
2021/10/03 11:37:44;;;;;;;2.63;2.43;;;25.40;31.10;;;;;;10429463;28;20757;-84
2021/10/03 11:42:55;;;;;;;2.80;2.60;;;25.50;30.80;;;;;;10426371;28;20243;-75
2021/10/03 11:48:00;;;;;;;2.33;2.23;;;25.70;31.30;;;;;;10420012;28;20228;-84
2021/10/03 11:53:15;;;;;;;2.70;2.50;;;25.70;31.00;;;;;;10425735;28;20232;-83
2021/10/03 11:58:22;;;;;;;2.77;2.57;;;25.80;30.40;;;;;;10422050;28;20226;-84
2021/10/03 12:03:26;;;;;;;2.97;2.77;;;25.80;30.90;;;;;;10418913;28;20443;-83
2021/10/03 12:08:38;;;;;;;2.27;2.17;;;26.10;30.70;;;;;;10412381;28;20270;-83
2021/10/03 12:13:42;;;;;;;2.50;2.30;;;26.20;29.70;;;;;;10419930;28;20720;-72
2021/10/03 12:18:49;;;;;;;2.60;2.40;;;26.30;30.20;;;;;;10419988;28;20232;-72
2021/10/03 12:23:58;;;;;;;2.80;2.60;;;26.40;30.60;;;;;;10423396;28;20224;-77
2021/10/03 12:29:10;;;;;;;2.27;2.10;;;26.50;29.50;;;;;;10417792;28;20224;-75
2021/10/03 12:34:39;;;;;;;2.23;2.13;;;26.60;29.50;;;;;;10412177;28;20238;-75
2021/10/03 12:40:08;;;;;;;2.63;2.43;;;26.60;29.50;;;;;;10415545;28;20845;-82
2021/10/03 12:45:12;;;;;;;4.70;2.60;;;26.70;29.30;;;;;;10416184;28;20716;-73
2021/10/03 12:50:16;;;;;;;2.47;2.27;;;26.70;29.60;;;;;;10410438;28;20307;-73
2021/10/03 12:55:26;;;;;;;2.83;2.50;;;26.70;29.60;;;;;;10437023;28;20225;-79
2021/10/03 13:00:30;;;;;;;2.90;2.70;;;26.70;29.50;;;;;;10423981;28;20342;-76
2021/10/03 13:05:34;;;;;;;2.80;2.60;;;26.80;29.60;;;;;;10416753;28;20286;-73
2021/10/03 13:10:42;;;;;;;2.77;2.57;;;26.80;29.60;;;;;;10415076;28;20225;-73
2021/10/03 13:15:48;;;;;;;2.80;2.50;;;26.80;28.70;;;;;;10416812;28;20221;-79
2021/10/03 13:20:52;;;;;;;2.47;2.27;;;26.80;29.60;;;;;;10422898;28;20296;-80
2021/10/03 13:25:57;;;;;;;2.57;2.33;;;26.80;29.60;;;;;;10416990;28;20509;-74
2021/10/03 13:31:02;;;;;;;2.60;2.40;;;26.80;29.60;;;;;;10407828;28;20268;-75
2021/10/03 13:36:06;;;;;;;2.80;2.60;;;26.80;29.40;;;;;;10413983;28;20237;-76
2021/10/03 13:41:12;;;;;;;2.60;2.40;;;26.80;29.60;;;;;;10411461;28;20232;-75
2021/10/03 13:46:15;;;;;;;2.43;2.30;;;26.80;29.00;;;;;;10418346;28;20604;-75
2021/10/03 13:51:20;;;;;;;2.60;2.40;;;26.80;29.60;;;;;;10423186;28;20232;-76
2021/10/03 13:56:25;;;;;;;3.50;2.70;;;26.80;29.00;;;;;;10419659;28;20236;-77
2021/10/03 14:01:29;;;;;;;2.60;2.40;;;26.90;29.10;;;;;;10422409;28;20278;-82
2021/10/03 14:06:33;;;;;;;2.60;2.40;;;26.90;29.60;;;;;;10421719;28;20225;-74
2021/10/03 14:11:38;;;;;;;2.83;2.50;;;26.90;29.30;;;;;;10420957;28;20231;-82
2021/10/03 14:16:42;;;;;;;3.60;2.50;;;26.90;29.00;;;;;;10417895;28;20312;-74
2021/10/03 14:21:45;;;;;;;2.80;2.60;;;27.00;29.30;;;;;;10422012;28;20221;-80
2021/10/03 14:26:50;;;;;;;3.00;2.80;;;27.00;29.20;;;;;;10425124;28;20701;-74
2021/10/03 14:31:53;;;;;;;2.53;2.33;;;27.00;28.70;;;;;;10425855;28;20251;-82
2021/10/03 14:37:01;;;;;;;2.70;2.50;;;27.10;29.20;;;;;;10429748;28;20228;-82
2021/10/03 14:42:10;;;;;;;2.60;2.40;;;27.00;29.40;;;;;;10426389;28;20239;-81
2021/10/03 14:47:21;;;;;;;2.87;2.40;;;27.00;28.70;;;;;;10416386;28;20224;-80
2021/10/03 14:52:27;;;;;;;3.93;2.63;;;27.10;29.20;;;;;;10432144;28;20237;-80
2021/10/03 14:57:40;;;;;;;3.70;2.40;;;27.10;28.80;;;;;;10419948;28;20572;-74
2021/10/03 15:02:55;;;;;;;2.70;2.50;;;27.10;28.40;;;;;;10419448;28;20223;-80
2021/10/03 15:13:31;;;;;;;2.40;2.30;;;27.00;28.50;;;;;;10419158;28;20310;-80
2021/10/03 15:18:44;;;;;;;3.17;2.50;;;27.00;28.40;;;;;;10432307;28;20224;-74
2021/10/03 15:23:54;;;;;;;2.77;2.57;;;27.00;28.90;;;;;;10420173;28;20307;-80
2021/10/03 15:29:03;;;;;;;2.93;2.67;;;26.90;29.10;;;;;;10426265;28;20273;-77
2021/10/03 15:34:10;;;;;;;3.00;2.60;;;26.80;29.00;;;;;;10430026;28;20237;-74
2021/10/03 15:39:14;;;;;;;3.30;3.00;;;26.80;29.20;;;;;;10432077;28;20233;-74
2021/10/03 15:44:32;;;;;;;18.70;7.83;;;26.60;29.50;;;;;;10409900;28;20226;-80
2021/10/03 15:49:37;;;;;;;32.63;9.73;;;26.50;29.50;;;;;;10432957;28;20216;-76
2021/10/03 15:54:40;;;;;;;8.50;4.70;;;26.40;29.40;;;;;;10435958;28;20237;-81
2021/10/03 15:59:45;;;;;;;6.40;3.83;;;26.40;29.40;;;;;;10434672;28;20217;-80
2021/10/03 16:04:48;;;;;;;2.80;2.60;;;26.20;29.30;;;;;;10439620;28;20221;-80
2021/10/03 16:09:52;;;;;;;3.10;2.80;;;26.10;29.40;;;;;;10429603;28;20751;-82
2021/10/03 16:14:56;;;;;;;2.73;2.53;;;26.10;29.70;;;;;;10427927;28;20599;-81
2021/10/03 16:20:00;;;;;;;3.37;3.07;;;25.90;29.90;;;;;;10426792;28;20552;-82
2021/10/03 16:25:04;;;;;;;2.93;2.70;;;25.80;30.00;;;;;;10426275;28;20235;-81
2021/10/03 16:30:10;;;;;;;2.93;2.73;;;25.70;29.90;;;;;;10431465;28;20228;-82
2021/10/03 16:35:13;;;;;;;2.80;2.60;;;25.60;29.80;;;;;;10427598;28;20245;-81
2021/10/03 16:40:17;;;;;;;3.07;2.87;;;25.50;30.00;;;;;;10428198;28;20233;-82
2021/10/03 16:45:22;;;;;;;2.93;2.73;;;25.40;30.30;;;;;;10421225;28;20737;-82
2021/10/03 16:50:26;;;;;;;3.00;2.70;;;25.30;30.60;;;;;;10427886;28;20226;-82
2021/10/03 16:55:29;;;;;;;2.80;2.60;;;25.20;30.60;;;;;;10427972;28;20315;-82
2021/10/03 17:00:35;;;;;;;3.43;3.13;;;25.10;30.80;;;;;;10424199;28;20962;-82
2021/10/03 17:05:38;;;;;;;3.00;2.80;;;24.90;31.10;;;;;;10429142;28;20228;-82
2021/10/03 17:10:41;;;;;;;3.23;2.93;;;24.90;31.00;;;;;;10427956;28;20876;-82
2021/10/03 17:15:46;;;;;;;3.80;2.97;;;24.80;31.30;;;;;;10424672;28;20607;-81
2021/10/03 17:20:49;;;;;;;3.30;3.00;;;24.70;31.60;;;;;;10423528;28;20217;-82
2021/10/03 17:25:53;;;;;;;3.73;3.27;;;24.60;31.70;;;;;;10428439;28;20235;-82
2021/10/03 17:30:57;;;;;;;3.67;3.37;;;24.50;31.80;;;;;;10424515;28;20235;-82
2021/10/03 17:36:00;;;;;;;3.77;3.47;;;24.50;32.00;;;;;;10418508;28;20737;-81
2021/10/03 17:41:04;;;;;;;4.10;3.80;;;24.30;31.70;;;;;;10423891;28;20586;-82
2021/10/03 17:46:09;;;;;;;3.47;3.17;;;24.20;31.80;;;;;;10436806;28;20235;-81
2021/10/03 17:51:14;;;;;;;3.80;3.50;;;24.10;32.30;;;;;;10434239;28;20252;-82
2021/10/03 17:56:17;;;;;;;3.47;3.13;;;24.10;32.50;;;;;;10425848;28;20228;-81
2021/10/03 18:01:22;;;;;;;3.90;3.60;;;24.00;32.40;;;;;;10428322;28;20279;-82
2021/10/03 18:06:26;;;;;;;4.43;4.03;;;23.90;32.50;;;;;;10425903;28;20232;-82
2021/10/03 18:11:34;;;;;;;4.60;3.70;;;23.90;32.40;;;;;;10416297;28;21174;-75
2021/10/03 18:16:41;;;;;;;3.70;3.40;;;23.90;32.90;;;;;;10392041;28;20701;-82
2021/10/03 18:21:45;;;;;;;3.97;3.63;;;23.80;33.20;;;;;;10420870;28;20232;-82
2021/10/03 18:26:50;;;;;;;4.33;4.00;;;23.80;32.90;;;;;;10429019;28;20232;-73
2021/10/03 18:31:55;;;;;;;4.33;3.97;;;23.70;32.90;;;;;;10430275;28;20217;-74
2021/10/03 18:36:59;;;;;;;4.83;3.83;;;23.70;33.20;;;;;;10429540;28;20312;-75
2021/10/03 18:42:03;;;;;;;4.47;4.17;;;23.60;33.10;;;;;;10424873;28;20225;-73
2021/10/03 18:47:08;;;;;;;4.87;4.40;;;23.60;33.20;;;;;;10416780;28;20313;-72
2021/10/03 18:52:11;;;;;;;4.77;4.37;;;23.60;33.80;;;;;;10417891;28;20732;-72
2021/10/03 18:57:15;;;;;;;5.13;4.80;;;23.50;33.50;;;;;;10413135;28;20692;-72
2021/10/03 19:02:24;;;;;;;5.40;4.93;;;23.50;33.70;;;;;;10412165;28;20601;-82
2021/10/03 19:07:29;;;;;;;5.70;5.27;;;23.50;34.60;;;;;;10428337;28;20323;-73
2021/10/03 19:12:39;;;;;;;5.63;5.20;;;23.30;33.90;;;;;;10435863;28;20498;-80
2021/10/03 19:23:15;;;;;;;5.53;5.13;;;23.30;34.50;;;;;;10354146;28;20232;-72
2021/10/03 19:28:24;;;;;;;5.40;5.03;;;23.30;34.20;;;;;;10427246;28;20225;-74
2021/10/03 19:33:31;;;;;;;5.20;4.80;;;23.20;34.10;;;;;;10423377;28;20233;-74
2021/10/03 19:38:35;;;;;;;5.50;4.90;;;23.10;34.50;;;;;;10425897;28;20225;-79
2021/10/03 19:43:40;;;;;;;6.33;5.83;;;23.10;34.20;;;;;;10419130;28;20225;-79
2021/10/03 19:48:46;;;;;;;6.43;5.93;;;22.90;34.20;;;;;;10419281;28;20234;-81
2021/10/03 19:53:51;;;;;;;7.10;6.40;;;22.80;34.80;;;;;;10426052;28;20226;-79
2021/10/03 19:58:54;;;;;;;7.63;6.93;;;22.50;34.70;;;;;;10425689;28;20235;-72
2021/10/03 20:03:59;;;;;;;7.73;6.80;;;22.40;34.80;;;;;;10431834;28;20230;-72
2021/10/03 20:09:03;;;;;;;7.10;6.50;;;22.20;35.40;;;;;;10425436;28;20229;-82
2021/10/03 20:14:06;;;;;;;7.20;6.60;;;22.10;35.10;;;;;;10426581;28;20585;-82
2021/10/03 20:19:11;;;;;;;6.60;6.10;;;22.10;35.10;;;;;;10428116;28;20232;-72
2021/10/03 20:24:15;;;;;;;7.43;6.73;;;22.00;35.40;;;;;;10425204;28;21701;-72
2021/10/03 20:29:20;;;;;;;7.10;6.40;;;22.00;35.20;;;;;;10426404;28;20816;-72
2021/10/03 20:34:26;;;;;;;7.63;7.03;;;22.00;35.10;;;;;;10415336;28;20239;-72
2021/10/03 20:39:33;;;;;;;7.10;6.50;;;22.00;35.50;;;;;;10418853;28;20799;-74
2021/10/03 20:44:37;;;;;;;6.87;6.27;;;21.90;35.40;;;;;;10419685;28;20229;-74
2021/10/03 20:49:43;;;;;;;6.43;5.93;;;21.80;35.50;;;;;;10419142;28;20228;-81
2021/10/03 20:54:47;;;;;;;5.67;5.17;;;21.70;35.90;;;;;;10413595;28;20602;-81
2021/10/03 20:59:52;;;;;;;4.93;4.53;;;21.70;35.50;;;;;;10422378;28;20632;-81
2021/10/03 21:04:56;;;;;;;5.40;4.10;;;21.60;35.70;;;;;;10425058;28;20239;-81
2021/10/03 21:10:03;;;;;;;5.00;4.40;;;21.60;35.90;;;;;;10421578;28;20280;-80
2021/10/03 21:15:09;;;;;;;4.07;3.77;;;21.60;36.20;;;;;;10419974;28;20655;-80
2021/10/03 21:20:17;;;;;;;3.70;3.40;;;21.50;36.30;;;;;;10429619;28;20239;-81
2021/10/03 21:25:21;;;;;;;3.70;3.50;;;21.40;36.10;;;;;;10426609;28;20224;-81
2021/10/03 21:30:24;;;;;;;3.03;2.80;;;21.40;35.90;;;;;;10428866;28;20236;-80
2021/10/03 21:35:28;;;;;;;2.80;2.60;;;21.30;35.80;;;;;;10431397;28;20328;-74
2021/10/03 21:40:32;;;;;;;2.90;2.70;;;21.20;36.00;;;;;;10431349;28;20236;-79
2021/10/03 21:45:35;;;;;;;2.90;2.50;;;21.20;35.90;;;;;;10421688;28;20221;-79
2021/10/03 21:50:40;;;;;;;2.53;2.33;;;21.10;35.70;;;;;;10419308;28;20609;-79
2021/10/03 21:55:43;;;;;;;2.40;2.30;;;21.10;35.90;;;;;;10423376;28;20232;-79
2021/10/03 22:00:52;;;;;;;2.40;2.20;;;21.00;35.70;;;;;;10423107;28;20221;-79
2021/10/03 22:05:57;;;;;;;2.30;2.20;;;21.00;36.10;;;;;;10420794;28;20229;-79
2021/10/03 22:11:03;;;;;;;3.27;2.50;;;20.90;36.00;;;;;;10423360;28;20236;-79
2021/10/03 22:16:07;;;;;;;2.77;2.20;;;20.80;35.90;;;;;;10421170;28;20271;-75
2021/10/03 22:21:11;;;;;;;2.43;1.80;;;20.70;36.00;;;;;;10423164;28;20225;-74
2021/10/03 22:26:17;;;;;;;2.00;1.73;;;20.60;36.10;;;;;;10420970;28;20336;-74
2021/10/03 22:31:20;;;;;;;2.13;2.03;;;20.50;36.00;;;;;;10423065;28;20233;-74
2021/10/03 22:36:25;;;;;;;2.00;1.90;;;20.40;36.20;;;;;;10424010;28;20229;-74
2021/10/03 22:41:28;;;;;;;1.90;1.80;;;20.40;36.80;;;;;;10428879;28;20229;-74
2021/10/03 22:46:31;;;;;;;1.83;1.73;;;20.30;36.40;;;;;;10428926;28;20589;-79
2021/10/03 22:51:36;;;;;;;1.97;1.80;;;20.30;36.20;;;;;;10430960;28;20225;-79
2021/10/03 22:56:40;;;;;;;1.63;1.53;;;20.30;36.50;;;;;;10428144;28;20237;-79
2021/10/03 23:01:43;;;;;;;1.40;1.33;;;20.30;36.10;;;;;;10432101;28;20229;-79
2021/10/03 23:06:49;;;;;;;1.73;1.63;;;20.30;36.10;;;;;;10429965;28;20226;-79
2021/10/03 23:11:52;;;;;;;1.60;1.50;;;20.30;36.50;;;;;;10431530;28;20223;-79
2021/10/03 23:16:55;;;;;;;1.70;1.60;;;20.30;36.20;;;;;;10430663;28;20228;-79
2021/10/03 23:22:00;;;;;;;2.50;1.90;;;20.20;36.40;;;;;;10429777;28;20816;-78
2021/10/03 23:27:04;;;;;;;1.67;1.57;;;20.20;36.70;;;;;;10426261;28;20236;-79
2021/10/03 23:32:08;;;;;;;1.63;1.53;;;20.20;36.70;;;;;;10421608;28;20230;-78
2021/10/03 23:37:12;;;;;;;1.80;1.70;;;20.20;36.60;;;;;;10427072;28;20315;-78
2021/10/03 23:42:16;;;;;;;1.73;1.63;;;20.20;36.70;;;;;;10433076;28;20224;-74
2021/10/03 23:47:19;;;;;;;1.47;1.37;;;20.20;36.70;;;;;;10423780;28;20230;-74
2021/10/03 23:52:24;;;;;;;1.60;1.50;;;20.20;36.60;;;;;;10427271;28;20599;-74
2021/10/03 23:57:27;;;;;;;1.50;1.40;;;20.20;36.70;;;;;;10428576;28;20249;-74
